Other Surface Observations
Issued by NWS Great Falls, MT

Home | Current Version | Previous Version | Text Only | Print | Product List | Glossary On
Versions: 1 2 3 4 5 6 7 8 9 10 11 12 13 14 15 16 17 18 19 20 21 22 23 24 25 26 27 28 29 30 31 32 33 34 35 36 37 38 39 40 41 42 43 44 45 46 47 48 49 50
635
SXUS55 KTFX 121508
OSOTFX

AREA AWOS OBSERVATIONS
NATIONAL WEATHER SERVICE GREAT FALLS MT
0807 AM MST Fri Feb 12 2016

METAR K6S8 121455Z AUTO 36003KT 25SM 01/M03 A3024 RMK A01 T00111027
METAR K6S8 121355Z AUTO 02000KT 25SM 02/M03 A3023 RMK A01 T00161027
METAR K7S1 121455Z AUTO 16004KT 40SM 01/M02 A3021 RMK A01 T00111016
METAR K97M 121455Z AUTO 13004KT 25SM M03/M06 A3029 RMK A01 T10331061
METAR K97M 121355Z AUTO 01000KT 25SM M04/M07 A3028 RMK A01 T10381066
METAR K9S2 121455Z AUTO 01007KT 40SM M15/M23 A3043 RMK A01 T11501227
METAR KRPX 121455Z AUTO 07000KT 10SM M02/M04 A3019 RMK A01 T10161038
METAR KS01 121455Z AUTO 01002KT 15SM 00/00 A3020 RMK A01 T00000000
METAR KS34 121455Z AUTO 25000KT 4SM 04/02 A3021 RMK A01 T00380022
METAR KS34 121355Z AUTO 25000KT 3 1/2SM 04/02 A3020 RMK A01 T00380022
METAR KTHM 121355Z AUTO 24000KT 7SM 03/02 A3025 RMK A01 T00330022



USA.gov is the U.S. government's official web portal to all federal, state and local government web resources and services.